createdAt,value
2019-01-19T00:02:28.057Z,82.86
2019-01-19T00:05:38.982Z,82.80
2019-01-19T00:08:20.794Z,84.27
2019-01-19T00:11:41.088Z,83.53
2019-01-19T00:14:19.213Z,83.07
2019-01-19T00:17:22.693Z,83.24
2019-01-19T00:20:37.800Z,83.94
2019-01-19T00:23:24.863Z,84.72
2019-01-19T00:26:36.948Z,84.91
2019-01-19T00:29:13.429Z,84.67
2019-01-19T00:32:08.668Z,84.86
2019-01-19T00:34:57.473Z,85.15
2019-01-19T00:37:42.188Z,85.22
2019-01-19T00:41:05.759Z,84.74
2019-01-19T00:43:43.146Z,84.63
2019-01-19T00:47:04.064Z,84.25
2019-01-19T00:49:56.819Z,83.78
2019-01-19T00:52:35.709Z,83.84
2019-01-19T00:55:50.880Z,84.27
2019-01-19T00:58:40.543Z,85.11
2019-01-19T01:01:55.098Z,87.30
2019-01-19T01:04:49.022Z,87.20
2019-01-19T01:07:59.893Z,87.27
2019-01-19T01:10:45.318Z,87.89
2019-01-19T01:13:56.244Z,87.97
2019-01-19T01:16:45.668Z,87.42
2019-01-19T01:20:09.895Z,86.88
2019-01-19T01:23:00.179Z,86.74
2019-01-19T01:25:55.703Z,86.73
2019-01-19T01:29:19.718Z,86.83
2019-01-19T01:32:00.628Z,86.40
2019-01-19T01:35:05.459Z,86.49
2019-01-19T01:38:32.717Z,86.36
2019-01-19T01:41:37.729Z,86.08
2019-01-19T01:45:00.551Z,86.60
2019-01-19T01:48:03.014Z,87.08
2019-01-19T01:50:55.563Z,88.56
2019-01-19T01:54:05.943Z,88.24
2019-01-19T01:56:33.419Z,88.05
2019-01-19T01:59:45.083Z,87.75
2019-01-19T02:02:30.520Z,87.60
2019-01-19T02:05:40.159Z,87.59
2019-01-19T02:08:45.658Z,87.59
2019-01-19T02:11:35.795Z,87.35
2019-01-19T02:14:33.934Z,87.11
2019-01-19T02:17:37.440Z,87.24
2019-01-19T02:20:21.808Z,87.03
2019-01-19T02:23:12.443Z,87.05
2019-01-19T02:26:26.153Z,87.39
2019-01-19T02:29:47.493Z,87.29
2019-01-19T02:32:44.439Z,87.97
2019-01-19T02:35:49.670Z,88.82
2019-01-19T02:38:32.304Z,89.05
2019-01-19T02:41:47.690Z,89.29
2019-01-19T02:45:07.617Z,89.47
2019-01-19T02:48:32.719Z,89.00
2019-01-19T02:51:25.934Z,88.74
2019-01-19T02:54:25.678Z,88.66
2019-01-19T02:57:21.168Z,88.28
2019-01-19T03:00:57.592Z,88.37
2019-01-19T03:03:54.695Z,88.53
2019-01-19T03:06:54.163Z,88.60
2019-01-19T03:09:58.064Z,88.47
2019-01-19T03:12:43.818Z,88.38
2019-01-19T03:15:41.209Z,88.35
2019-01-19T03:18:53.718Z,88.56
2019-01-19T03:21:40.730Z,88.54
2019-01-19T03:24:42.859Z,88.46
2019-01-19T03:27:27.045Z,88.45
2019-01-19T03:30:31.177Z,88.60
2019-01-19T03:33:46.468Z,88.46
2019-01-19T03:36:44.578Z,88.53
2019-01-19T03:39:43.559Z,88.23
2019-01-19T03:42:37.074Z,88.20
2019-01-19T03:45:40.616Z,88.31
2019-01-19T03:48:43.693Z,88.42
2019-01-19T03:51:43.174Z,88.36
2019-01-19T03:54:33.131Z,88.19
2019-01-19T03:57:19.684Z,88.22
2019-01-19T04:00:18.408Z,88.09
2019-01-19T04:03:20.818Z,88.09
2019-01-19T04:06:17.017Z,88.04
2019-01-19T04:09:27.869Z,88.17
2019-01-19T04:12:20.600Z,88.18
2019-01-19T04:15:12.529Z,88.12
2019-01-19T04:18:22.984Z,87.82
2019-01-19T04:21:26.871Z,87.88
2019-01-19T04:23:59.129Z,88.05
2019-01-19T04:26:34.004Z,87.98
2019-01-19T04:29:01.489Z,87.49
2019-01-19T04:31:28.861Z,87.38
2019-01-19T04:33:56.816Z,87.59
2019-01-19T04:36:24.503Z,87.88
2019-01-19T04:38:52.139Z,88.02
2019-01-19T04:41:19.599Z,87.82
2019-01-19T04:43:46.990Z,87.10
2019-01-19T04:46:14.734Z,87.55
2019-01-19T04:48:42.570Z,87.81
2019-01-19T04:51:10.028Z,88.11
2019-01-19T04:53:37.421Z,88.40
2019-01-19T04:56:04.994Z,88.68
2019-01-19T04:58:32.413Z,88.98
2019-01-19T05:01:04.374Z,89.10
2019-01-19T05:03:31.777Z,88.78
2019-01-19T05:05:59.448Z,88.52
2019-01-19T05:08:26.860Z,88.46
2019-01-19T05:10:54.339Z,88.25
2019-01-19T05:13:21.754Z,88.27
2019-01-19T05:15:49.216Z,88.36
2019-01-19T05:18:17.098Z,88.46
2019-01-19T05:20:44.555Z,88.26
2019-01-19T05:23:11.957Z,88.02
2019-01-19T05:25:39.393Z,87.88
2019-01-19T05:28:06.778Z,87.94
2019-01-19T05:30:34.242Z,87.81
2019-01-19T05:33:01.624Z,88.71
2019-01-19T05:35:29.398Z,88.26
2019-01-19T05:37:56.869Z,87.50
2019-01-19T05:40:24.338Z,87.30
2019-01-19T05:42:51.724Z,87.09
2019-01-19T05:45:19.209Z,87.05
2019-01-19T05:47:46.633Z,87.25
2019-01-19T05:50:21.630Z,87.03
2019-01-19T05:52:49.026Z,86.86
2019-01-19T05:55:16.492Z,86.56
2019-01-19T05:57:44.153Z,86.42
2019-01-19T06:00:14.579Z,86.21
2019-01-19T06:02:41.999Z,86.03
2019-01-19T06:05:09.669Z,86.09
2019-01-19T06:07:37.628Z,86.35
2019-01-19T06:10:06.357Z,86.12
2019-01-19T06:12:33.838Z,85.97
2019-01-19T06:15:03.139Z,85.91
2019-01-19T06:17:32.329Z,85.93
2019-01-19T06:19:59.739Z,86.07
2019-01-19T06:22:27.234Z,86.03
2019-01-19T06:24:57.707Z,85.99
2019-01-19T06:27:25.204Z,86.05
2019-01-19T06:29:52.629Z,86.00
2019-01-19T06:32:20.694Z,86.04
2019-01-19T06:34:48.459Z,86.12
2019-01-19T06:37:15.920Z,86.09
2019-01-19T06:39:43.375Z,86.05
2019-01-19T06:42:10.838Z,85.98
2019-01-19T06:44:40.804Z,85.79
2019-01-19T06:47:08.269Z,85.63
2019-01-19T06:49:35.678Z,85.50
2019-01-19T06:52:03.278Z,85.43
2019-01-19T06:54:30.788Z,85.53
2019-01-19T06:56:58.259Z,85.49
2019-01-19T06:59:25.660Z,85.42
2019-01-19T07:01:53.242Z,85.48
2019-01-19T07:04:30.832Z,85.40
2019-01-19T07:07:02.569Z,85.41
2019-01-19T07:09:28.862Z,85.80
2019-01-19T07:11:56.533Z,85.76
2019-01-19T07:14:23.974Z,85.59
2019-01-19T07:16:51.476Z,85.35
2019-01-19T07:19:18.838Z,85.28
2019-01-19T07:21:46.304Z,85.23
2019-01-19T07:24:13.717Z,85.22
2019-01-19T07:26:41.174Z,85.10
2019-01-19T07:29:08.599Z,85.10
2019-01-19T07:31:36.060Z,85.21
2019-01-19T07:34:03.719Z,85.08
2019-01-19T07:36:31.229Z,85.16
2019-01-19T07:38:58.658Z,85.26
2019-01-19T07:41:26.119Z,85.00
2019-01-19T07:44:13.820Z,85.14
2019-01-19T07:46:47.128Z,85.23
2019-01-19T07:49:15.824Z,85.06
2019-01-19T07:51:47.329Z,84.90
2019-01-19T07:54:14.925Z,84.85
2019-01-19T07:56:42.403Z,84.41
2019-01-19T07:59:10.134Z,83.90
2019-01-19T08:01:52.534Z,83.78
2019-01-19T08:04:23.079Z,83.42
2019-01-19T08:06:52.161Z,82.70
2019-01-19T08:09:19.708Z,82.16
2019-01-19T08:11:47.184Z,81.68
2019-01-19T08:14:17.137Z,81.48
2019-01-19T08:16:47.734Z,81.60
2019-01-19T08:19:15.249Z,81.93
2019-01-19T08:21:42.713Z,81.91
2019-01-19T08:24:10.315Z,81.91
2019-01-19T08:26:37.741Z,81.50
2019-01-19T08:29:05.339Z,81.45
2019-01-19T08:31:32.779Z,81.82
2019-01-19T08:34:00.221Z,80.95
2019-01-19T08:36:28.009Z,81.09
2019-01-19T08:38:55.483Z,81.28
2019-01-19T08:41:22.911Z,81.19
2019-01-19T08:43:55.526Z,81.53
2019-01-19T08:46:22.965Z,80.92
2019-01-19T08:48:50.519Z,80.48
2019-01-19T08:51:17.918Z,80.66
2019-01-19T08:53:45.466Z,81.41
2019-01-19T08:56:12.898Z,81.38
2019-01-19T08:58:40.404Z,81.53
2019-01-19T09:01:07.919Z,81.03
2019-01-19T09:03:35.419Z,81.15
2019-01-19T09:06:02.965Z,80.59
2019-01-19T09:08:30.423Z,80.41
2019-01-19T09:10:57.854Z,80.11
2019-01-19T09:13:25.337Z,79.31
2019-01-19T09:15:56.359Z,78.67
2019-01-19T09:18:23.815Z,79.21
2019-01-19T09:20:51.353Z,79.07
2019-01-19T09:23:29.275Z,80.42
2019-01-19T09:25:57.693Z,78.62
2019-01-19T09:28:25.154Z,78.29
2019-01-19T09:30:53.139Z,78.17
2019-01-19T09:33:21.202Z,78.77
2019-01-19T09:35:49.050Z,79.67
2019-01-19T09:38:20.137Z,80.44
2019-01-19T09:40:48.588Z,79.16
2019-01-19T09:43:16.218Z,78.52
2019-01-19T09:45:43.599Z,78.75
2019-01-19T09:48:11.063Z,77.96
2019-01-19T09:50:39.238Z,78.04
2019-01-19T09:53:06.884Z,78.37
2019-01-19T09:55:34.305Z,77.41
2019-01-19T09:58:01.788Z,77.20
2019-01-19T10:00:35.632Z,77.86
2019-01-19T10:02:58.739Z,79.40
2019-01-19T10:05:26.437Z,77.78
2019-01-19T10:07:54.183Z,78.60
2019-01-19T10:10:21.649Z,78.27
2019-01-19T10:12:49.173Z,78.28
2019-01-19T10:15:16.739Z,77.74
2019-01-19T10:17:44.378Z,78.16
2019-01-19T10:20:14.527Z,76.46
2019-01-19T10:22:41.981Z,77.08
2019-01-19T10:25:10.456Z,77.05
2019-01-19T10:27:37.886Z,77.06
2019-01-19T10:30:15.185Z,76.53
2019-01-19T10:32:42.652Z,77.94
2019-01-19T10:35:10.791Z,76.96
2019-01-19T10:37:38.290Z,76.67
2019-01-19T10:40:06.955Z,76.73
2019-01-19T10:42:34.521Z,76.47
2019-01-19T10:45:01.926Z,76.55
2019-01-19T10:47:29.371Z,75.19
2019-01-19T10:49:56.830Z,74.98
2019-01-19T10:52:25.966Z,76.40
2019-01-19T10:54:53.643Z,76.02
2019-01-19T10:57:21.055Z,75.88
2019-01-19T10:59:48.567Z,74.48
2019-01-19T11:02:16.176Z,75.27
2019-01-19T11:04:43.731Z,74.74
2019-01-19T11:07:11.192Z,76.01
2019-01-19T11:09:39.060Z,76.03
2019-01-19T11:12:06.451Z,75.74
2019-01-19T11:14:34.376Z,74.58
2019-01-19T11:17:01.821Z,74.81
2019-01-19T11:19:29.495Z,74.67
2019-01-19T11:21:56.926Z,74.39
2019-01-19T11:24:24.410Z,74.67
2019-01-19T11:26:51.805Z,74.18
2019-01-19T11:29:19.246Z,72.38
2019-01-19T11:31:46.636Z,72.36
2019-01-19T11:34:14.121Z,72.52
2019-01-19T11:36:41.891Z,72.10
2019-01-19T11:39:09.356Z,71.84
2019-01-19T11:41:39.495Z,70.67
2019-01-19T11:44:22.266Z,71.50
2019-01-19T11:46:59.623Z,71.52
2019-01-19T11:49:29.350Z,69.70
2019-01-19T11:53:04.815Z,69.39
2019-01-19T11:55:46.044Z,69.16
2019-01-19T11:58:09.531Z,68.59
2019-01-19T12:00:38.582Z,69.21
2019-01-19T12:03:11.726Z,68.86
2019-01-19T12:05:39.626Z,69.64
2019-01-19T12:08:08.131Z,68.50
2019-01-19T12:10:35.666Z,68.36
2019-01-19T12:13:03.141Z,68.72
2019-01-19T12:15:30.710Z,70.01
2019-01-19T12:17:58.216Z,68.75
2019-01-19T12:20:32.005Z,67.92
2019-01-19T12:22:59.438Z,68.48
2019-01-19T12:25:27.035Z,68.19
2019-01-19T12:27:54.433Z,68.62
2019-01-19T12:30:24.047Z,67.82
2019-01-19T12:32:51.460Z,67.79
2019-01-19T12:35:18.916Z,68.03
2019-01-19T12:37:46.448Z,68.05
2019-01-19T12:40:15.595Z,68.13
2019-01-19T12:42:44.145Z,68.45
2019-01-19T12:45:15.151Z,68.21
2019-01-19T12:47:42.550Z,67.43
2019-01-19T12:50:14.626Z,67.33
2019-01-19T12:52:42.176Z,66.96
2019-01-19T12:55:09.925Z,67.07
2019-01-19T12:57:37.421Z,66.86
2019-01-19T13:00:08.664Z,66.77
2019-01-19T13:02:36.085Z,66.88
2019-01-19T13:05:05.840Z,67.14
2019-01-19T13:07:33.217Z,67.87
2019-01-19T13:10:31.230Z,68.12
2019-01-19T13:13:05.525Z,67.85
2019-01-19T13:16:32.505Z,68.73
2019-01-19T13:19:41.853Z,68.35
2019-01-19T13:22:38.916Z,68.50
2019-01-19T13:25:35.905Z,69.01
2019-01-19T13:28:50.196Z,68.33
2019-01-19T13:31:50.459Z,68.53
2019-01-19T13:34:59.012Z,68.25
2019-01-19T13:37:54.331Z,69.06
2019-01-19T13:40:52.135Z,68.56
2019-01-19T13:43:51.235Z,68.86
2019-01-19T13:46:43.901Z,68.86
2019-01-19T13:50:14.268Z,68.21
2019-01-19T13:53:21.408Z,68.66
2019-01-19T13:56:33.656Z,68.13
2019-01-19T13:59:43.600Z,67.85
2019-01-19T14:02:43.037Z,68.11
2019-01-19T14:05:49.415Z,68.35
2019-01-19T14:08:58.892Z,68.29
2019-01-19T14:12:03.955Z,67.36
2019-01-19T14:14:39.076Z,67.50
2019-01-19T14:17:32.650Z,67.80
2019-01-19T14:20:10.010Z,67.76
2019-01-19T14:23:13.845Z,67.86
2019-01-19T14:26:25.655Z,67.23
2019-01-19T14:29:30.880Z,67.39
2019-01-19T14:32:35.795Z,67.02
2019-01-19T14:35:26.981Z,67.74
2019-01-19T14:38:57.392Z,67.65
2019-01-19T14:42:02.290Z,68.45
2019-01-19T14:45:03.915Z,67.75
2019-01-19T14:48:18.977Z,66.85
2019-01-19T14:51:43.260Z,67.32
2019-01-19T14:54:50.726Z,67.29
2019-01-19T14:58:01.991Z,66.81
2019-01-19T15:00:52.149Z,67.21
2019-01-19T15:03:48.976Z,67.11
2019-01-19T15:06:34.776Z,67.22
2019-01-19T15:09:42.230Z,67.22
2019-01-19T15:12:58.920Z,67.46
2019-01-19T15:15:50.686Z,68.03
2019-01-19T15:19:15.290Z,67.41
2019-01-19T15:22:09.025Z,67.68
2019-01-19T15:25:14.242Z,67.98
2019-01-19T15:28:32.525Z,66.29
2019-01-19T15:31:39.247Z,66.75
2019-01-19T15:38:45.242Z,66.05
2019-01-19T15:41:52.976Z,65.59
2019-01-19T15:50:05.531Z,65.03
2019-01-19T15:53:20.466Z,64.46
2019-01-19T15:56:29.611Z,65.47
2019-01-19T15:59:18.376Z,65.00
2019-01-19T16:02:26.381Z,64.96
2019-01-19T16:05:30.857Z,65.28
2019-01-19T16:08:32.897Z,65.32
2019-01-19T16:11:26.204Z,65.46
2019-01-19T16:14:46.782Z,65.87
2019-01-19T16:17:57.888Z,66.61
2019-01-19T16:21:22.096Z,66.90
2019-01-19T16:24:30.336Z,66.78
2019-01-19T16:27:29.851Z,66.72
2019-01-19T16:30:48.026Z,66.93
2019-01-19T16:33:24.986Z,67.08
2019-01-19T16:36:23.141Z,67.10
2019-01-19T16:39:30.375Z,67.38
2019-01-19T16:42:39.413Z,67.79
2019-01-19T16:45:42.409Z,67.79
2019-01-19T16:48:43.856Z,68.00
2019-01-19T16:51:48.781Z,68.24
2019-01-19T16:54:46.266Z,68.48
2019-01-19T16:57:41.343Z,68.61
2019-01-19T17:00:49.551Z,69.17
2019-01-19T17:04:10.406Z,70.72
2019-01-19T17:07:20.771Z,71.94
2019-01-19T17:10:03.088Z,71.92
2019-01-19T17:13:08.342Z,72.53
2019-01-19T17:15:59.692Z,73.23
2019-01-19T17:18:52.782Z,74.57
2019-01-19T17:22:03.896Z,73.94
2019-01-19T17:25:16.212Z,74.66
2019-01-19T17:28:29.522Z,75.73
2019-01-19T17:31:37.641Z,75.43
2019-01-19T17:34:31.632Z,73.58
2019-01-19T17:37:26.972Z,74.25
2019-01-19T17:40:41.446Z,75.35
2019-01-19T17:43:34.282Z,75.42
2019-01-19T17:46:18.227Z,73.86
2019-01-19T17:49:00.836Z,73.18
2019-01-19T17:52:28.341Z,74.03
2019-01-19T17:55:39.712Z,74.67
2019-01-19T17:58:33.696Z,74.90
2019-01-19T18:01:40.646Z,74.34
2019-01-19T18:04:36.721Z,75.14
2019-01-19T18:07:49.647Z,75.18
2019-01-19T18:10:30.142Z,73.43
2019-01-19T18:13:30.433Z,73.28
2019-01-19T18:16:54.738Z,73.74
2019-01-19T18:19:44.635Z,74.23
2019-01-19T18:22:50.028Z,74.20
2019-01-19T18:26:17.752Z,75.35
2019-01-19T18:29:30.682Z,75.44
2019-01-19T18:32:06.571Z,73.86
2019-01-19T18:35:08.884Z,73.28
2019-01-19T18:37:53.972Z,73.17
2019-01-19T18:40:40.522Z,73.43
2019-01-19T18:44:00.878Z,75.87
2019-01-19T18:47:34.241Z,76.09
2019-01-19T18:50:43.972Z,76.66
2019-01-19T18:53:58.961Z,77.55
2019-01-19T18:57:04.243Z,78.25
2019-01-19T19:00:17.628Z,77.22
2019-01-19T19:03:33.495Z,77.05
2019-01-19T19:06:31.536Z,76.96
2019-01-19T19:09:44.421Z,77.18
2019-01-19T19:12:53.766Z,77.33
2019-01-19T19:16:02.531Z,77.86
2019-01-19T19:19:14.506Z,78.69
2019-01-19T19:22:35.728Z,78.85
2019-01-19T19:25:47.328Z,79.25
2019-01-19T19:28:49.700Z,79.74
2019-01-19T19:31:38.556Z,80.02
2019-01-19T19:34:34.781Z,79.95
2019-01-19T19:37:37.693Z,79.89
2019-01-19T19:40:55.561Z,79.87
2019-01-19T19:44:10.042Z,79.42
2019-01-19T19:47:22.615Z,80.13
2019-01-19T19:50:39.105Z,80.46
2019-01-19T19:53:13.767Z,81.17
2019-01-19T19:55:44.350Z,81.58
2019-01-19T19:58:20.731Z,81.49
2019-01-19T20:00:56.647Z,80.60
2019-01-19T20:03:45.837Z,80.14
2019-01-19T20:06:19.891Z,80.23
2019-01-19T20:08:58.991Z,80.86
2019-01-19T20:11:34.811Z,81.22
2019-01-19T20:14:05.256Z,81.29
2019-01-19T20:16:44.207Z,81.49
2019-01-19T20:19:12.653Z,81.35
2019-01-19T20:24:51.920Z,81.45
2019-01-19T20:27:26.156Z,81.96
2019-01-19T20:29:54.717Z,82.28
2019-01-19T20:32:35.615Z,82.09
2019-01-19T20:35:13.056Z,81.94
2019-01-19T20:37:54.150Z,82.47
2019-01-19T20:40:36.376Z,82.53
2019-01-19T20:43:20.785Z,81.61
2019-01-19T20:46:20.916Z,81.65
2019-01-19T20:49:01.242Z,81.83
2019-01-19T20:51:35.295Z,82.61
2019-01-19T20:54:12.177Z,82.25
2019-01-19T20:57:00.920Z,82.00
2019-01-19T20:59:42.227Z,82.19
2019-01-19T21:02:21.476Z,82.51
2019-01-19T21:04:58.797Z,82.44
2019-01-19T21:07:37.176Z,82.76
2019-01-19T21:10:16.422Z,82.48
2019-01-19T21:12:56.845Z,82.31
2019-01-19T21:15:39.041Z,81.82
2019-01-19T21:18:06.782Z,82.11
2019-01-19T21:20:53.265Z,82.18
2019-01-19T21:23:42.450Z,82.61
2019-01-19T21:26:53.010Z,82.54
2019-01-19T21:29:42.204Z,82.50
2019-01-19T21:32:44.266Z,82.75
2019-01-19T21:35:12.167Z,83.11
2019-01-19T21:38:16.558Z,82.54
2019-01-19T21:41:28.568Z,82.79
2019-01-19T21:44:04.350Z,83.57
2019-01-19T21:46:47.035Z,84.11
2019-01-19T21:49:23.437Z,84.28
2019-01-19T21:52:18.676Z,84.59
2019-01-19T21:54:46.279Z,84.67
2019-01-19T22:04:26.657Z,84.54
2019-01-19T22:07:02.348Z,84.51
2019-01-19T22:09:40.780Z,84.70
2019-01-19T22:12:16.589Z,84.76
2019-01-19T22:14:53.891Z,84.68
2019-01-19T22:17:39.489Z,84.25
2019-01-19T22:20:10.198Z,84.78
2019-01-19T22:22:37.765Z,84.51
2019-01-19T22:25:47.205Z,84.87
2019-01-19T22:28:14.806Z,84.91
2019-01-19T22:30:42.377Z,84.91
2019-01-19T22:33:21.046Z,83.76
2019-01-19T22:35:56.241Z,83.76
2019-01-19T22:38:26.885Z,84.16
2019-01-19T22:40:54.396Z,84.00
2019-01-19T22:43:27.181Z,84.25
2019-01-19T22:46:23.150Z,84.76
2019-01-19T22:49:23.550Z,84.43
2019-01-19T22:52:06.077Z,84.45
2019-01-19T22:55:07.282Z,85.11
2019-01-19T22:58:03.815Z,84.62
2019-01-19T23:01:18.431Z,84.69
2019-01-19T23:04:14.600Z,84.69
2019-01-19T23:07:18.461Z,84.72
2019-01-19T23:09:45.965Z,84.49
2019-01-19T23:12:16.722Z,84.31
2019-01-19T23:15:46.024Z,83.98
2019-01-19T23:18:09.426Z,85.03
2019-01-19T23:20:48.719Z,85.30
2019-01-19T23:23:16.301Z,85.30
2019-01-19T23:25:43.822Z,85.22
2019-01-19T23:28:20.640Z,84.90
2019-01-19T23:30:48.216Z,84.26
2019-01-19T23:33:15.672Z,84.21
2019-01-19T23:35:43.392Z,84.82
2019-01-19T23:38:11.086Z,84.53
2019-01-19T23:40:38.636Z,84.28
2019-01-19T23:43:20.850Z,84.44
2019-01-19T23:45:48.551Z,84.22
2019-01-19T23:48:18.931Z,84.94
2019-01-19T23:50:46.396Z,83.46
2019-01-19T23:53:14.142Z,83.46
2019-01-19T23:55:41.671Z,85.38
2019-01-19T23:58:09.284Z,85.38
